sensor_id;sensor_type;location;lat;lon;timestamp;temperature;humidity
7800;DHT22;3944;47.984;7.960;2022-08-19T00:01:20;17.30;99.90
7800;DHT22;3944;47.984;7.960;2022-08-19T00:03:48;17.30;99.90
7800;DHT22;3944;47.984;7.960;2022-08-19T00:06:15;17.20;99.90
7800;DHT22;3944;47.984;7.960;2022-08-19T00:08:44;17.20;99.90
7800;DHT22;3944;47.984;7.960;2022-08-19T00:11:11;17.20;99.90
7800;DHT22;3944;47.984;7.960;2022-08-19T00:13:38;17.30;99.90
7800;DHT22;3944;47.984;7.960;2022-08-19T00:16:05;17.30;99.90
7800;DHT22;3944;47.984;7.960;2022-08-19T00:18:32;17.30;99.90
7800;DHT22;3944;47.984;7.960;2022-08-19T00:21:00;17.30;99.90
7800;DHT22;3944;47.984;7.960;2022-08-19T00:23:27;17.30;99.90
7800;DHT22;3944;47.984;7.960;2022-08-19T00:25:56;17.30;99.90
7800;DHT22;3944;47.984;7.960;2022-08-19T00:28:23;17.30;99.90
7800;DHT22;3944;47.984;7.960;2022-08-19T00:30:49;17.30;99.90
7800;DHT22;3944;47.984;7.960;2022-08-19T00:33:18;17.30;99.90
7800;DHT22;3944;47.984;7.960;2022-08-19T00:35:45;17.30;99.90
7800;DHT22;3944;47.984;7.960;2022-08-19T00:38:12;17.40;99.90
7800;DHT22;3944;47.984;7.960;2022-08-19T00:40:39;17.20;99.90
7800;DHT22;3944;47.984;7.960;2022-08-19T00:43:11;17.30;99.90
7800;DHT22;3944;47.984;7.960;2022-08-19T00:45:40;17.20;99.90
7800;DHT22;3944;47.984;7.960;2022-08-19T00:48:09;17.40;99.90
7800;DHT22;3944;47.984;7.960;2022-08-19T00:50:36;17.40;99.90
7800;DHT22;3944;47.984;7.960;2022-08-19T00:53:06;17.40;99.90
7800;DHT22;3944;47.984;7.960;2022-08-19T00:55:33;17.40;99.90
7800;DHT22;3944;47.984;7.960;2022-08-19T00:58:04;17.40;99.90
7800;DHT22;3944;47.984;7.960;2022-08-19T01:00:34;17.40;99.90
7800;DHT22;3944;47.984;7.960;2022-08-19T01:03:02;17.30;99.90
7800;DHT22;3944;47.984;7.960;2022-08-19T01:05:29;17.30;99.90
7800;DHT22;3944;47.984;7.960;2022-08-19T01:07:58;17.30;99.90
7800;DHT22;3944;47.984;7.960;2022-08-19T01:10:27;17.30;99.90
7800;DHT22;3944;47.984;7.960;2022-08-19T01:12:58;17.30;99.90
7800;DHT22;3944;47.984;7.960;2022-08-19T01:15:30;17.40;99.90
7800;DHT22;3944;47.984;7.960;2022-08-19T01:18:00;17.40;99.90
7800;DHT22;3944;47.984;7.960;2022-08-19T01:20:28;17.40;99.90
7800;DHT22;3944;47.984;7.960;2022-08-19T01:22:58;17.30;99.90
7800;DHT22;3944;47.984;7.960;2022-08-19T01:25:28;17.30;99.90
7800;DHT22;3944;47.984;7.960;2022-08-19T01:27:56;17.30;99.90
7800;DHT22;3944;47.984;7.960;2022-08-19T01:30:25;17.40;99.90
7800;DHT22;3944;47.984;7.960;2022-08-19T01:32:53;17.30;99.90
7800;DHT22;3944;47.984;7.960;2022-08-19T01:35:22;17.40;99.90
7800;DHT22;3944;47.984;7.960;2022-08-19T01:37:51;17.30;99.90
7800;DHT22;3944;47.984;7.960;2022-08-19T01:40:23;17.30;99.90
7800;DHT22;3944;47.984;7.960;2022-08-19T01:42:52;17.30;99.90
7800;DHT22;3944;47.984;7.960;2022-08-19T01:45:21;17.30;99.90
7800;DHT22;3944;47.984;7.960;2022-08-19T01:47:48;17.20;99.90
7800;DHT22;3944;47.984;7.960;2022-08-19T01:50:16;17.30;99.90
7800;DHT22;3944;47.984;7.960;2022-08-19T01:52:44;17.30;99.90
7800;DHT22;3944;47.984;7.960;2022-08-19T01:55:12;17.30;99.90
7800;DHT22;3944;47.984;7.960;2022-08-19T01:57:44;17.30;99.90
7800;DHT22;3944;47.984;7.960;2022-08-19T02:00:14;17.30;99.90
7800;DHT22;3944;47.984;7.960;2022-08-19T02:02:41;17.30;99.90
7800;DHT22;3944;47.984;7.960;2022-08-19T02:05:09;17.30;99.90
7800;DHT22;3944;47.984;7.960;2022-08-19T02:07:36;17.40;99.90
7800;DHT22;3944;47.984;7.960;2022-08-19T02:10:05;17.30;99.90
7800;DHT22;3944;47.984;7.960;2022-08-19T02:12:32;17.30;99.90
7800;DHT22;3944;47.984;7.960;2022-08-19T02:15:00;17.30;99.90
7800;DHT22;3944;47.984;7.960;2022-08-19T02:17:28;17.30;99.90
7800;DHT22;3944;47.984;7.960;2022-08-19T02:19:55;17.30;99.90
7800;DHT22;3944;47.984;7.960;2022-08-19T02:22:22;17.30;99.90
7800;DHT22;3944;47.984;7.960;2022-08-19T02:24:50;17.40;99.90
7800;DHT22;3944;47.984;7.960;2022-08-19T02:27:17;17.40;99.90
7800;DHT22;3944;47.984;7.960;2022-08-19T02:29:45;17.40;99.90
7800;DHT22;3944;47.984;7.960;2022-08-19T02:32:14;17.40;99.90
7800;DHT22;3944;47.984;7.960;2022-08-19T02:34:42;17.30;99.90
7800;DHT22;3944;47.984;7.960;2022-08-19T02:37:09;17.30;99.90
7800;DHT22;3944;47.984;7.960;2022-08-19T02:39:55;17.30;99.90
7800;DHT22;3944;47.984;7.960;2022-08-19T02:42:21;17.30;99.90
7800;DHT22;3944;47.984;7.960;2022-08-19T02:44:48;17.40;99.90
7800;DHT22;3944;47.984;7.960;2022-08-19T02:47:17;17.30;99.90
7800;DHT22;3944;47.984;7.960;2022-08-19T02:49:44;17.30;99.90
7800;DHT22;3944;47.984;7.960;2022-08-19T02:52:11;17.40;99.90
7800;DHT22;3944;47.984;7.960;2022-08-19T02:54:39;17.30;99.90
7800;DHT22;3944;47.984;7.960;2022-08-19T02:57:06;17.30;99.90
7800;DHT22;3944;47.984;7.960;2022-08-19T02:59:33;17.30;99.90
7800;DHT22;3944;47.984;7.960;2022-08-19T03:02:00;17.30;99.90
7800;DHT22;3944;47.984;7.960;2022-08-19T03:04:28;17.30;99.90
7800;DHT22;3944;47.984;7.960;2022-08-19T03:06:56;17.30;99.90
7800;DHT22;3944;47.984;7.960;2022-08-19T03:09:22;17.30;99.90
7800;DHT22;3944;47.984;7.960;2022-08-19T03:11:49;17.30;99.90
7800;DHT22;3944;47.984;7.960;2022-08-19T03:14:16;17.30;99.90
7800;DHT22;3944;47.984;7.960;2022-08-19T03:16:47;17.30;99.90
7800;DHT22;3944;47.984;7.960;2022-08-19T03:19:16;17.30;99.90
7800;DHT22;3944;47.984;7.960;2022-08-19T03:21:45;17.30;99.90
7800;DHT22;3944;47.984;7.960;2022-08-19T03:24:13;17.30;99.90
7800;DHT22;3944;47.984;7.960;2022-08-19T03:26:42;17.30;99.90
7800;DHT22;3944;47.984;7.960;2022-08-19T03:29:09;17.20;99.90
7800;DHT22;3944;47.984;7.960;2022-08-19T03:31:37;17.30;99.90
7800;DHT22;3944;47.984;7.960;2022-08-19T03:34:04;17.30;99.90
7800;DHT22;3944;47.984;7.960;2022-08-19T03:36:31;17.30;99.90
7800;DHT22;3944;47.984;7.960;2022-08-19T03:39:00;17.30;99.90
7800;DHT22;3944;47.984;7.960;2022-08-19T03:41:28;17.30;99.90
7800;DHT22;3944;47.984;7.960;2022-08-19T03:43:56;17.30;99.90
7800;DHT22;3944;47.984;7.960;2022-08-19T03:46:28;17.40;99.90
7800;DHT22;3944;47.984;7.960;2022-08-19T03:48:57;17.30;99.90
7800;DHT22;3944;47.984;7.960;2022-08-19T03:51:26;17.30;99.90
7800;DHT22;3944;47.984;7.960;2022-08-19T03:53:54;17.20;99.90
7800;DHT22;3944;47.984;7.960;2022-08-19T03:56:23;17.30;99.90
7800;DHT22;3944;47.984;7.960;2022-08-19T03:58:52;17.30;99.90
7800;DHT22;3944;47.984;7.960;2022-08-19T04:01:21;17.40;99.90
7800;DHT22;3944;47.984;7.960;2022-08-19T04:03:49;17.30;99.90
7800;DHT22;3944;47.984;7.960;2022-08-19T04:06:18;17.30;99.90
7800;DHT22;3944;47.984;7.960;2022-08-19T04:08:47;17.30;99.90
7800;DHT22;3944;47.984;7.960;2022-08-19T04:11:17;17.20;99.90
7800;DHT22;3944;47.984;7.960;2022-08-19T04:13:48;17.30;99.90
7800;DHT22;3944;47.984;7.960;2022-08-19T04:16:17;17.30;99.90
7800;DHT22;3944;47.984;7.960;2022-08-19T04:18:45;17.30;99.90
7800;DHT22;3944;47.984;7.960;2022-08-19T04:21:16;17.30;99.90
7800;DHT22;3944;47.984;7.960;2022-08-19T04:23:43;17.30;99.90
7800;DHT22;3944;47.984;7.960;2022-08-19T04:26:12;17.30;99.90
7800;DHT22;3944;47.984;7.960;2022-08-19T04:28:39;17.30;99.90
7800;DHT22;3944;47.984;7.960;2022-08-19T04:31:13;17.30;99.90
7800;DHT22;3944;47.984;7.960;2022-08-19T04:33:41;17.30;99.90
7800;DHT22;3944;47.984;7.960;2022-08-19T04:36:08;17.30;99.90
7800;DHT22;3944;47.984;7.960;2022-08-19T04:38:41;17.30;99.90
7800;DHT22;3944;47.984;7.960;2022-08-19T04:41:08;17.30;99.90
7800;DHT22;3944;47.984;7.960;2022-08-19T04:43:52;17.30;99.90
7800;DHT22;3944;47.984;7.960;2022-08-19T04:46:20;17.30;99.90
7800;DHT22;3944;47.984;7.960;2022-08-19T04:48:47;17.30;99.90
7800;DHT22;3944;47.984;7.960;2022-08-19T04:51:14;17.40;99.90
7800;DHT22;3944;47.984;7.960;2022-08-19T04:53:42;17.30;99.90
7800;DHT22;3944;47.984;7.960;2022-08-19T04:56:12;17.30;99.90
7800;DHT22;3944;47.984;7.960;2022-08-19T04:58:41;17.40;99.90
7800;DHT22;3944;47.984;7.960;2022-08-19T05:01:09;17.30;99.90
7800;DHT22;3944;47.984;7.960;2022-08-19T05:03:39;17.50;99.90
7800;DHT22;3944;47.984;7.960;2022-08-19T05:06:07;17.40;99.90
7800;DHT22;3944;47.984;7.960;2022-08-19T05:08:37;17.40;99.90
7800;DHT22;3944;47.984;7.960;2022-08-19T05:11:08;17.40;99.90
7800;DHT22;3944;47.984;7.960;2022-08-19T05:13:37;17.40;99.90
7800;DHT22;3944;47.984;7.960;2022-08-19T05:16:04;17.40;99.90
7800;DHT22;3944;47.984;7.960;2022-08-19T05:18:31;17.40;99.90
7800;DHT22;3944;47.984;7.960;2022-08-19T05:21:19;17.40;99.90
7800;DHT22;3944;47.984;7.960;2022-08-19T05:24:04;17.40;99.90
7800;DHT22;3944;47.984;7.960;2022-08-19T05:26:34;17.40;99.90
7800;DHT22;3944;47.984;7.960;2022-08-19T05:29:01;17.40;99.90
7800;DHT22;3944;47.984;7.960;2022-08-19T05:31:28;17.40;99.90
7800;DHT22;3944;47.984;7.960;2022-08-19T05:33:55;17.40;99.90
7800;DHT22;3944;47.984;7.960;2022-08-19T05:36:25;17.40;99.90
7800;DHT22;3944;47.984;7.960;2022-08-19T05:38:52;17.40;99.90
7800;DHT22;3944;47.984;7.960;2022-08-19T05:41:20;17.40;99.90
7800;DHT22;3944;47.984;7.960;2022-08-19T05:43:48;17.40;99.90
7800;DHT22;3944;47.984;7.960;2022-08-19T05:46:17;17.50;99.90
7800;DHT22;3944;47.984;7.960;2022-08-19T05:48:45;17.60;99.90
7800;DHT22;3944;47.984;7.960;2022-08-19T05:51:12;17.40;99.90
7800;DHT22;3944;47.984;7.960;2022-08-19T05:53:41;17.40;99.90
7800;DHT22;3944;47.984;7.960;2022-08-19T05:56:10;17.50;99.90
7800;DHT22;3944;47.984;7.960;2022-08-19T05:58:38;17.50;99.90
7800;DHT22;3944;47.984;7.960;2022-08-19T06:01:10;17.40;99.90
7800;DHT22;3944;47.984;7.960;2022-08-19T06:03:37;17.50;99.90
7800;DHT22;3944;47.984;7.960;2022-08-19T06:06:05;17.50;99.90
7800;DHT22;3944;47.984;7.960;2022-08-19T06:08:33;17.50;99.90
7800;DHT22;3944;47.984;7.960;2022-08-19T06:11:14;17.50;99.90
7800;DHT22;3944;47.984;7.960;2022-08-19T06:13:42;17.60;99.90
7800;DHT22;3944;47.984;7.960;2022-08-19T06:16:10;17.50;99.90
7800;DHT22;3944;47.984;7.960;2022-08-19T06:18:37;17.60;99.90
7800;DHT22;3944;47.984;7.960;2022-08-19T06:21:04;17.60;99.90
7800;DHT22;3944;47.984;7.960;2022-08-19T06:23:31;17.50;99.90
7800;DHT22;3944;47.984;7.960;2022-08-19T06:26:00;17.60;99.90
7800;DHT22;3944;47.984;7.960;2022-08-19T06:28:28;17.60;99.90
7800;DHT22;3944;47.984;7.960;2022-08-19T06:30:55;17.70;99.90
7800;DHT22;3944;47.984;7.960;2022-08-19T06:33:22;17.70;99.90
7800;DHT22;3944;47.984;7.960;2022-08-19T06:35:48;17.70;99.90
7800;DHT22;3944;47.984;7.960;2022-08-19T06:38:15;17.70;99.90
7800;DHT22;3944;47.984;7.960;2022-08-19T06:40:42;17.80;99.90
7800;DHT22;3944;47.984;7.960;2022-08-19T06:43:09;17.80;99.90
7800;DHT22;3944;47.984;7.960;2022-08-19T06:45:38;17.80;99.90
7800;DHT22;3944;47.984;7.960;2022-08-19T06:48:05;17.80;99.90
7800;DHT22;3944;47.984;7.960;2022-08-19T06:50:32;17.80;99.90
7800;DHT22;3944;47.984;7.960;2022-08-19T06:52:59;17.90;99.90
7800;DHT22;3944;47.984;7.960;2022-08-19T06:55:26;17.90;99.90
7800;DHT22;3944;47.984;7.960;2022-08-19T06:57:55;18.00;99.90
7800;DHT22;3944;47.984;7.960;2022-08-19T07:00:22;17.90;99.90
7800;DHT22;3944;47.984;7.960;2022-08-19T07:02:50;17.90;99.90
7800;DHT22;3944;47.984;7.960;2022-08-19T07:05:18;18.00;99.90
7800;DHT22;3944;47.984;7.960;2022-08-19T07:07:45;17.90;99.90
7800;DHT22;3944;47.984;7.960;2022-08-19T07:10:12;17.90;99.90
7800;DHT22;3944;47.984;7.960;2022-08-19T07:12:39;18.00;99.90
7800;DHT22;3944;47.984;7.960;2022-08-19T07:15:07;18.00;99.90
7800;DHT22;3944;47.984;7.960;2022-08-19T07:17:35;18.10;99.90
7800;DHT22;3944;47.984;7.960;2022-08-19T07:20:07;18.10;99.90
7800;DHT22;3944;47.984;7.960;2022-08-19T07:22:34;18.10;99.90
7800;DHT22;3944;47.984;7.960;2022-08-19T07:25:01;18.10;99.90
7800;DHT22;3944;47.984;7.960;2022-08-19T07:27:29;18.10;99.90
7800;DHT22;3944;47.984;7.960;2022-08-19T07:29:56;18.10;99.90
7800;DHT22;3944;47.984;7.960;2022-08-19T07:32:24;18.10;99.90
7800;DHT22;3944;47.984;7.960;2022-08-19T07:34:51;18.10;99.90
7800;DHT22;3944;47.984;7.960;2022-08-19T07:37:20;18.20;99.90
7800;DHT22;3944;47.984;7.960;2022-08-19T07:39:47;18.10;99.90
7800;DHT22;3944;47.984;7.960;2022-08-19T07:42:13;18.20;99.90
7800;DHT22;3944;47.984;7.960;2022-08-19T07:44:41;18.20;99.90
7800;DHT22;3944;47.984;7.960;2022-08-19T07:47:08;18.10;99.90
7800;DHT22;3944;47.984;7.960;2022-08-19T07:49:35;18.20;99.90
7800;DHT22;3944;47.984;7.960;2022-08-19T07:52:05;18.20;99.90
7800;DHT22;3944;47.984;7.960;2022-08-19T07:54:36;18.20;99.90
7800;DHT22;3944;47.984;7.960;2022-08-19T07:57:04;18.20;99.90
7800;DHT22;3944;47.984;7.960;2022-08-19T07:59:31;18.20;99.90
7800;DHT22;3944;47.984;7.960;2022-08-19T08:01:58;18.10;99.90
7800;DHT22;3944;47.984;7.960;2022-08-19T08:04:26;18.10;99.90
7800;DHT22;3944;47.984;7.960;2022-08-19T08:07:11;18.10;99.90
7800;DHT22;3944;47.984;7.960;2022-08-19T08:09:56;18.00;99.90
7800;DHT22;3944;47.984;7.960;2022-08-19T08:12:26;18.00;99.90
7800;DHT22;3944;47.984;7.960;2022-08-19T08:14:55;18.00;99.90
7800;DHT22;3944;47.984;7.960;2022-08-19T08:17:24;18.10;99.90
7800;DHT22;3944;47.984;7.960;2022-08-19T08:19:52;18.10;99.90
7800;DHT22;3944;47.984;7.960;2022-08-19T08:22:21;18.10;99.90
7800;DHT22;3944;47.984;7.960;2022-08-19T08:25:10;18.10;99.90
7800;DHT22;3944;47.984;7.960;2022-08-19T08:27:38;18.10;99.90
7800;DHT22;3944;47.984;7.960;2022-08-19T08:30:07;18.00;99.90
7800;DHT22;3944;47.984;7.960;2022-08-19T08:32:35;18.00;99.90
7800;DHT22;3944;47.984;7.960;2022-08-19T08:35:03;18.00;99.90
7800;DHT22;3944;47.984;7.960;2022-08-19T08:37:30;18.00;99.90
7800;DHT22;3944;47.984;7.960;2022-08-19T08:39:57;18.20;99.90
7800;DHT22;3944;47.984;7.960;2022-08-19T08:42:30;18.20;99.90
7800;DHT22;3944;47.984;7.960;2022-08-19T08:45:00;18.30;99.90
7800;DHT22;3944;47.984;7.960;2022-08-19T08:47:32;18.30;99.90
7800;DHT22;3944;47.984;7.960;2022-08-19T08:50:05;18.30;99.90
7800;DHT22;3944;47.984;7.960;2022-08-19T08:52:36;18.40;99.90
7800;DHT22;3944;47.984;7.960;2022-08-19T08:55:07;18.40;99.90
7800;DHT22;3944;47.984;7.960;2022-08-19T08:57:49;18.40;99.90
7800;DHT22;3944;47.984;7.960;2022-08-19T09:00:22;18.40;99.90
7800;DHT22;3944;47.984;7.960;2022-08-19T09:02:52;18.50;99.90
7800;DHT22;3944;47.984;7.960;2022-08-19T09:05:19;18.50;99.90
7800;DHT22;3944;47.984;7.960;2022-08-19T09:07:53;18.50;99.90
7800;DHT22;3944;47.984;7.960;2022-08-19T09:10:29;18.50;99.90
7800;DHT22;3944;47.984;7.960;2022-08-19T09:13:06;18.50;99.90
7800;DHT22;3944;47.984;7.960;2022-08-19T09:15:41;18.60;99.90
7800;DHT22;3944;47.984;7.960;2022-08-19T09:18:09;18.70;99.90
7800;DHT22;3944;47.984;7.960;2022-08-19T09:20:36;18.80;99.90
7800;DHT22;3944;47.984;7.960;2022-08-19T09:23:03;18.80;99.90
7800;DHT22;3944;47.984;7.960;2022-08-19T09:25:30;18.70;99.90
7800;DHT22;3944;47.984;7.960;2022-08-19T09:28:01;18.70;99.90
7800;DHT22;3944;47.984;7.960;2022-08-19T09:30:31;18.80;99.90
7800;DHT22;3944;47.984;7.960;2022-08-19T09:32:58;18.90;99.90
7800;DHT22;3944;47.984;7.960;2022-08-19T09:35:27;18.90;99.90
7800;DHT22;3944;47.984;7.960;2022-08-19T09:37:55;18.90;99.90
7800;DHT22;3944;47.984;7.960;2022-08-19T09:40:23;18.90;99.90
7800;DHT22;3944;47.984;7.960;2022-08-19T09:42:51;19.00;99.90
7800;DHT22;3944;47.984;7.960;2022-08-19T09:45:21;19.00;99.90
7800;DHT22;3944;47.984;7.960;2022-08-19T09:47:49;19.10;99.90
7800;DHT22;3944;47.984;7.960;2022-08-19T09:50:17;19.20;99.90
7800;DHT22;3944;47.984;7.960;2022-08-19T09:52:44;19.30;99.90
7800;DHT22;3944;47.984;7.960;2022-08-19T09:55:11;19.30;99.90
7800;DHT22;3944;47.984;7.960;2022-08-19T09:57:38;19.30;99.90
7800;DHT22;3944;47.984;7.960;2022-08-19T10:00:08;19.30;99.90
7800;DHT22;3944;47.984;7.960;2022-08-19T10:02:36;19.40;99.90
7800;DHT22;3944;47.984;7.960;2022-08-19T10:05:04;19.50;99.90
7800;DHT22;3944;47.984;7.960;2022-08-19T10:07:48;19.60;99.90
7800;DHT22;3944;47.984;7.960;2022-08-19T10:10:15;19.70;99.90
7800;DHT22;3944;47.984;7.960;2022-08-19T10:12:42;19.60;99.90
7800;DHT22;3944;47.984;7.960;2022-08-19T10:15:13;19.60;99.90
7800;DHT22;3944;47.984;7.960;2022-08-19T10:17:41;19.60;99.90
7800;DHT22;3944;47.984;7.960;2022-08-19T10:20:08;19.50;99.90
7800;DHT22;3944;47.984;7.960;2022-08-19T10:22:35;19.50;99.90
7800;DHT22;3944;47.984;7.960;2022-08-19T10:25:04;19.50;99.90
7800;DHT22;3944;47.984;7.960;2022-08-19T10:27:31;19.60;99.90
7800;DHT22;3944;47.984;7.960;2022-08-19T10:29:58;19.60;99.90
7800;DHT22;3944;47.984;7.960;2022-08-19T10:32:25;19.60;99.90
7800;DHT22;3944;47.984;7.960;2022-08-19T10:34:54;19.50;99.90
7800;DHT22;3944;47.984;7.960;2022-08-19T10:37:21;19.50;99.90
7800;DHT22;3944;47.984;7.960;2022-08-19T10:39:48;19.60;99.90
7800;DHT22;3944;47.984;7.960;2022-08-19T10:42:15;19.60;99.90
7800;DHT22;3944;47.984;7.960;2022-08-19T10:44:44;19.60;99.90
7800;DHT22;3944;47.984;7.960;2022-08-19T10:47:12;19.60;99.90
7800;DHT22;3944;47.984;7.960;2022-08-19T10:49:38;19.80;99.90
7800;DHT22;3944;47.984;7.960;2022-08-19T10:52:21;19.90;99.90
7800;DHT22;3944;47.984;7.960;2022-08-19T10:54:59;20.00;99.90
7800;DHT22;3944;47.984;7.960;2022-08-19T10:57:44;20.10;99.90
7800;DHT22;3944;47.984;7.960;2022-08-19T11:00:11;20.20;99.90
7800;DHT22;3944;47.984;7.960;2022-08-19T11:02:39;20.20;99.90
7800;DHT22;3944;47.984;7.960;2022-08-19T11:05:07;20.30;99.90
7800;DHT22;3944;47.984;7.960;2022-08-19T11:07:37;20.40;99.90
7800;DHT22;3944;47.984;7.960;2022-08-19T11:10:05;20.50;99.90
7800;DHT22;3944;47.984;7.960;2022-08-19T11:12:33;20.50;99.90
7800;DHT22;3944;47.984;7.960;2022-08-19T11:14:59;20.60;99.90
7800;DHT22;3944;47.984;7.960;2022-08-19T11:17:27;20.60;99.90
7800;DHT22;3944;47.984;7.960;2022-08-19T11:19:55;20.60;99.90
7800;DHT22;3944;47.984;7.960;2022-08-19T11:22:21;20.60;99.90
7800;DHT22;3944;47.984;7.960;2022-08-19T11:24:49;20.60;99.90
7800;DHT22;3944;47.984;7.960;2022-08-19T11:27:16;20.60;99.90
7800;DHT22;3944;47.984;7.960;2022-08-19T11:29:43;20.60;99.90
7800;DHT22;3944;47.984;7.960;2022-08-19T11:32:10;20.70;99.90
7800;DHT22;3944;47.984;7.960;2022-08-19T11:34:38;20.70;99.90
7800;DHT22;3944;47.984;7.960;2022-08-19T11:37:05;20.70;99.90
7800;DHT22;3944;47.984;7.960;2022-08-19T11:39:35;20.70;99.90
7800;DHT22;3944;47.984;7.960;2022-08-19T11:42:05;20.70;99.90
7800;DHT22;3944;47.984;7.960;2022-08-19T11:44:53;20.70;99.90
7800;DHT22;3944;47.984;7.960;2022-08-19T11:47:20;20.80;99.90
7800;DHT22;3944;47.984;7.960;2022-08-19T11:49:47;20.90;99.90
7800;DHT22;3944;47.984;7.960;2022-08-19T11:52:14;20.90;99.90
7800;DHT22;3944;47.984;7.960;2022-08-19T11:54:41;21.00;99.90
7800;DHT22;3944;47.984;7.960;2022-08-19T11:57:09;20.90;99.90
7800;DHT22;3944;47.984;7.960;2022-08-19T11:59:36;20.90;99.90
7800;DHT22;3944;47.984;7.960;2022-08-19T12:02:03;20.90;99.90
7800;DHT22;3944;47.984;7.960;2022-08-19T12:04:30;20.90;99.90
7800;DHT22;3944;47.984;7.960;2022-08-19T12:06:57;20.90;99.90
7800;DHT22;3944;47.984;7.960;2022-08-19T12:09:24;20.80;99.90
7800;DHT22;3944;47.984;7.960;2022-08-19T12:11:51;20.90;99.90
7800;DHT22;3944;47.984;7.960;2022-08-19T12:14:19;21.00;99.90
7800;DHT22;3944;47.984;7.960;2022-08-19T12:16:46;21.10;99.90
7800;DHT22;3944;47.984;7.960;2022-08-19T12:19:13;21.30;99.90
7800;DHT22;3944;47.984;7.960;2022-08-19T12:21:41;21.40;99.90
7800;DHT22;3944;47.984;7.960;2022-08-19T12:24:08;21.40;99.90
7800;DHT22;3944;47.984;7.960;2022-08-19T12:26:35;21.50;99.90
7800;DHT22;3944;47.984;7.960;2022-08-19T12:29:03;21.50;99.90
7800;DHT22;3944;47.984;7.960;2022-08-19T12:31:31;21.50;99.90
7800;DHT22;3944;47.984;7.960;2022-08-19T12:33:59;21.50;99.90
7800;DHT22;3944;47.984;7.960;2022-08-19T12:36:28;21.50;99.90
7800;DHT22;3944;47.984;7.960;2022-08-19T12:38:57;21.60;99.90
7800;DHT22;3944;47.984;7.960;2022-08-19T12:41:25;21.50;99.90
7800;DHT22;3944;47.984;7.960;2022-08-19T12:43:52;21.60;99.90
7800;DHT22;3944;47.984;7.960;2022-08-19T12:46:19;21.70;99.90
7800;DHT22;3944;47.984;7.960;2022-08-19T12:48:47;21.70;99.90
7800;DHT22;3944;47.984;7.960;2022-08-19T12:51:16;21.70;99.90
7800;DHT22;3944;47.984;7.960;2022-08-19T12:53:45;21.80;99.90
7800;DHT22;3944;47.984;7.960;2022-08-19T12:56:12;21.80;99.90
7800;DHT22;3944;47.984;7.960;2022-08-19T12:58:40;21.90;99.90
7800;DHT22;3944;47.984;7.960;2022-08-19T13:01:09;21.90;99.90
7800;DHT22;3944;47.984;7.960;2022-08-19T13:03:37;21.80;99.90
7800;DHT22;3944;47.984;7.960;2022-08-19T13:06:06;22.00;99.90
7800;DHT22;3944;47.984;7.960;2022-08-19T13:08:33;21.90;99.90
7800;DHT22;3944;47.984;7.960;2022-08-19T13:11:07;22.00;99.90
7800;DHT22;3944;47.984;7.960;2022-08-19T13:13:36;22.00;99.90
7800;DHT22;3944;47.984;7.960;2022-08-19T13:16:07;22.00;99.90
7800;DHT22;3944;47.984;7.960;2022-08-19T13:18:33;22.10;99.90
7800;DHT22;3944;47.984;7.960;2022-08-19T13:21:02;22.10;99.90
7800;DHT22;3944;47.984;7.960;2022-08-19T13:23:31;22.20;99.90
7800;DHT22;3944;47.984;7.960;2022-08-19T13:25:58;22.20;99.90
7800;DHT22;3944;47.984;7.960;2022-08-19T13:28:25;22.30;99.90
7800;DHT22;3944;47.984;7.960;2022-08-19T13:31:15;22.20;99.90
7800;DHT22;3944;47.984;7.960;2022-08-19T13:33:59;22.20;99.90
7800;DHT22;3944;47.984;7.960;2022-08-19T13:36:26;22.20;99.90
7800;DHT22;3944;47.984;7.960;2022-08-19T13:38:54;22.20;99.90
7800;DHT22;3944;47.984;7.960;2022-08-19T13:41:22;22.10;99.90
7800;DHT22;3944;47.984;7.960;2022-08-19T13:43:49;22.00;99.90
7800;DHT22;3944;47.984;7.960;2022-08-19T13:46:16;22.00;99.90
7800;DHT22;3944;47.984;7.960;2022-08-19T13:48:43;22.00;99.90
7800;DHT22;3944;47.984;7.960;2022-08-19T13:51:09;22.00;99.90
7800;DHT22;3944;47.984;7.960;2022-08-19T13:53:36;22.30;99.90
7800;DHT22;3944;47.984;7.960;2022-08-19T13:56:07;22.40;99.90
7800;DHT22;3944;47.984;7.960;2022-08-19T13:58:35;22.40;99.90
7800;DHT22;3944;47.984;7.960;2022-08-19T14:01:02;22.40;99.90
7800;DHT22;3944;47.984;7.960;2022-08-19T14:03:30;22.50;99.90
7800;DHT22;3944;47.984;7.960;2022-08-19T14:05:57;22.50;99.90
7800;DHT22;3944;47.984;7.960;2022-08-19T14:08:24;22.50;99.90
7800;DHT22;3944;47.984;7.960;2022-08-19T14:10:53;22.40;99.90
7800;DHT22;3944;47.984;7.960;2022-08-19T14:13:23;22.30;99.90
7800;DHT22;3944;47.984;7.960;2022-08-19T14:15:50;22.40;99.90
7800;DHT22;3944;47.984;7.960;2022-08-19T14:18:17;22.50;99.90
7800;DHT22;3944;47.984;7.960;2022-08-19T14:20:44;22.80;99.90
7800;DHT22;3944;47.984;7.960;2022-08-19T14:23:11;22.80;99.90
7800;DHT22;3944;47.984;7.960;2022-08-19T14:25:39;22.70;99.90
7800;DHT22;3944;47.984;7.960;2022-08-19T14:28:06;22.70;99.90
7800;DHT22;3944;47.984;7.960;2022-08-19T14:30:35;22.60;99.90
7800;DHT22;3944;47.984;7.960;2022-08-19T14:33:04;22.60;99.90
7800;DHT22;3944;47.984;7.960;2022-08-19T14:35:32;22.50;99.90
7800;DHT22;3944;47.984;7.960;2022-08-19T14:38:00;22.40;99.90
7800;DHT22;3944;47.984;7.960;2022-08-19T14:40:29;22.40;99.90
7800;DHT22;3944;47.984;7.960;2022-08-19T14:42:59;22.40;99.90
7800;DHT22;3944;47.984;7.960;2022-08-19T14:45:30;22.30;99.90
7800;DHT22;3944;47.984;7.960;2022-08-19T14:47:58;22.30;99.90
7800;DHT22;3944;47.984;7.960;2022-08-19T14:50:26;22.20;99.90
7800;DHT22;3944;47.984;7.960;2022-08-19T14:52:58;22.00;99.90
7800;DHT22;3944;47.984;7.960;2022-08-19T14:55:26;22.00;99.90
7800;DHT22;3944;47.984;7.960;2022-08-19T14:57:53;22.00;99.90
7800;DHT22;3944;47.984;7.960;2022-08-19T15:00:20;21.90;99.90
7800;DHT22;3944;47.984;7.960;2022-08-19T15:02:47;21.90;99.90
7800;DHT22;3944;47.984;7.960;2022-08-19T15:05:15;22.00;99.90
7800;DHT22;3944;47.984;7.960;2022-08-19T15:07:43;22.00;99.90
7800;DHT22;3944;47.984;7.960;2022-08-19T15:10:11;22.00;99.90
7800;DHT22;3944;47.984;7.960;2022-08-19T15:12:39;22.00;99.90
7800;DHT22;3944;47.984;7.960;2022-08-19T15:15:07;22.00;99.90
7800;DHT22;3944;47.984;7.960;2022-08-19T15:17:34;22.00;99.90
7800;DHT22;3944;47.984;7.960;2022-08-19T15:20:03;22.00;99.90
7800;DHT22;3944;47.984;7.960;2022-08-19T15:22:32;22.00;99.90
7800;DHT22;3944;47.984;7.960;2022-08-19T15:24:59;22.00;99.90
7800;DHT22;3944;47.984;7.960;2022-08-19T15:27:26;22.00;99.90
7800;DHT22;3944;47.984;7.960;2022-08-19T15:29:53;22.00;99.90
7800;DHT22;3944;47.984;7.960;2022-08-19T15:32:22;22.00;99.90
7800;DHT22;3944;47.984;7.960;2022-08-19T15:34:51;22.00;99.90
7800;DHT22;3944;47.984;7.960;2022-08-19T15:37:18;22.00;99.90
7800;DHT22;3944;47.984;7.960;2022-08-19T15:39:48;22.00;99.90
7800;DHT22;3944;47.984;7.960;2022-08-19T15:42:15;22.00;99.90
7800;DHT22;3944;47.984;7.960;2022-08-19T15:44:41;22.00;99.90
7800;DHT22;3944;47.984;7.960;2022-08-19T15:47:08;22.00;99.90
7800;DHT22;3944;47.984;7.960;2022-08-19T15:49:36;21.90;99.90
7800;DHT22;3944;47.984;7.960;2022-08-19T15:52:03;21.90;99.90
7800;DHT22;3944;47.984;7.960;2022-08-19T15:54:32;21.90;99.90
7800;DHT22;3944;47.984;7.960;2022-08-19T15:57:01;21.90;99.90
7800;DHT22;3944;47.984;7.960;2022-08-19T15:59:45;21.90;99.90
7800;DHT22;3944;47.984;7.960;2022-08-19T16:02:29;21.80;99.90
7800;DHT22;3944;47.984;7.960;2022-08-19T16:05:18;21.80;99.90
7800;DHT22;3944;47.984;7.960;2022-08-19T16:08:03;21.80;99.90
7800;DHT22;3944;47.984;7.960;2022-08-19T16:10:30;21.80;99.90
7800;DHT22;3944;47.984;7.960;2022-08-19T16:12:59;21.70;99.90